Terminal Aerodrome Forecast
Issued by NWS

Home | Current Version | Previous Version | Text Only | Print | Product List | Glossary On
Versions: 1 2 3 4 5 6 7 8 9 10 11 12 13 14 15 16 17 18 19 20 21 22 23 24 25 26 27 28 29 30
000
FTUS44 KHGX 270808 AAA
TAFSGR
TAF AMD
KSGR 270808Z 2708/2806 15007KT P6SM VCSH BKN010 OVC026
     FM271400 14009KT 4SM -SHRA BR SCT005 BKN015
     FM271800 22008KT 3SM -SHRA BR SCT010 BKN020
      TEMPO 2719/2723 -TSRA BKN010CB
     FM272300 34012KT P6SM VCTS BKN015CB
     FM280200 35014G22KT P6SM BKN015=

USA.gov is the U.S. government's official web portal to all federal, state and local government web resources and services.